Spring Valley Lake, California
Current Conditions -  °F | °C
As of 10:35 AM on Sunday 23 Nov 2014 (Local Time) from KVCV Reporting Station
Clear Clear  
Wind Chill: 59°   Ceiling: Unl
Heat Index: 59°   Visibility: 10mi
Dew Point: 12°   Wind: 12mph
Humidity: 16%   Direction: 50°NE
Pressure: 30.3"   Gusts: 23mph
Location:  34.483°N, 117.376°W
Report Text: KVCV 231835Z AUTO 05010G20KT 10SM CLR 15/M11 A3030 RMK AO2
Loading
Personal Weather Stations






























Interactive Weather Map New forecast layout! Learn more

10-Day Weather Forecast

Advertisements
Track Severe Weather on mobile